Time;durP1;ratioP1;P1;durP2;ratioP2;P2;SDS_P1;SDS_P2;PMS_P1;PMS_P2;Temp;Humidity;BMP_temperature;BMP_pressure;BME280_temperature;BME280_humidity;BME280_pressure;Samples;Min_cycle;Max_cycle;Signal;HPM_P1;HPM_P2
2022/10/27 03:00:36;;;;;;;19.55;8.65;;;14.10;99.90;;;;;;6253191;22;20027;-79
2022/10/27 03:03:02;;;;;;;15.38;8.73;;;14.20;99.90;;;;;;6286821;22;20015;-80
2022/10/27 03:05:28;;;;;;;16.42;8.75;;;14.20;99.90;;;;;;6309447;22;20392;-78
2022/10/27 03:07:53;;;;;;;15.88;8.88;;;14.20;99.90;;;;;;6311919;22;20011;-80
2022/10/27 03:10:19;;;;;;;15.50;8.43;;;14.10;99.90;;;;;;6339961;22;20011;-80
2022/10/27 03:12:47;;;;;;;15.70;8.00;;;14.10;99.90;;;;;;6339682;22;20391;-79
2022/10/27 03:15:12;;;;;;;14.82;7.85;;;14.10;99.90;;;;;;6339932;22;20034;-78
2022/10/27 03:17:48;;;;;;;19.48;8.95;;;14.10;99.90;;;;;;6339229;22;20380;-78
2022/10/27 03:20:15;;;;;;;20.13;8.27;;;14.10;99.90;;;;;;6339205;22;20447;-78
2022/10/27 03:22:41;;;;;;;19.48;8.48;;;14.10;99.90;;;;;;6339322;22;20039;-78
2022/10/27 03:25:08;;;;;;;16.23;8.07;;;14.00;99.90;;;;;;6311668;22;20010;-80
2022/10/27 03:27:34;;;;;;;19.50;8.38;;;14.00;99.90;;;;;;6339341;22;20444;-77
2022/10/27 03:29:59;;;;;;;15.70;8.68;;;14.00;99.90;;;;;;6312055;22;20140;-78
2022/10/27 03:32:25;;;;;;;19.45;8.20;;;14.10;99.90;;;;;;6311706;22;20014;-79
2022/10/27 03:34:50;;;;;;;18.20;8.63;;;14.00;99.90;;;;;;6311406;22;20428;-78
2022/10/27 03:37:16;;;;;;;19.75;9.18;;;13.90;99.90;;;;;;6311787;22;20046;-77
2022/10/27 03:39:41;;;;;;;18.40;8.93;;;14.00;99.90;;;;;;6311730;22;20390;-79
2022/10/27 03:42:07;;;;;;;22.38;9.65;;;14.00;99.90;;;;;;6311527;22;20010;-78
2022/10/27 03:44:33;;;;;;;25.92;10.07;;;13.90;99.90;;;;;;6311584;22;20419;-78
2022/10/27 03:46:58;;;;;;;17.40;9.23;;;13.90;99.90;;;;;;6312192;22;20059;-77
2022/10/27 03:49:24;;;;;;;17.77;9.23;;;13.90;99.90;;;;;;6339129;22;20332;-78
2022/10/27 03:51:50;;;;;;;18.38;9.80;;;13.90;99.90;;;;;;6311414;22;20007;-79
2022/10/27 03:54:15;;;;;;;21.05;10.45;;;13.90;99.90;;;;;;6285662;22;20007;-76
2022/10/27 03:56:41;;;;;;;17.65;9.30;;;13.80;99.90;;;;;;6311618;22;20521;-77
2022/10/27 03:59:08;;;;;;;19.85;9.63;;;13.80;99.90;;;;;;6311445;22;20022;-79
2022/10/27 04:01:34;;;;;;;18.42;9.77;;;13.80;99.90;;;;;;6339121;22;20007;-77
2022/10/27 04:03:59;;;;;;;21.35;9.55;;;13.80;99.90;;;;;;6338986;22;20408;-79
2022/10/27 04:06:25;;;;;;;23.70;9.98;;;13.80;99.90;;;;;;6311392;22;20015;-80
2022/10/27 04:08:51;;;;;;;21.90;10.07;;;13.80;99.90;;;;;;6311575;22;20010;-79
2022/10/27 04:11:16;;;;;;;17.60;10.15;;;13.80;99.90;;;;;;6311258;22;20015;-78
2022/10/27 04:13:42;;;;;;;20.40;11.10;;;13.70;99.90;;;;;;6311323;22;20010;-80
2022/10/27 04:16:07;;;;;;;18.30;9.98;;;13.70;99.90;;;;;;6311342;22;20064;-77
2022/10/27 04:18:33;;;;;;;25.38;10.88;;;13.70;99.90;;;;;;6311419;22;20014;-80
2022/10/27 04:21:01;;;;;;;17.98;10.07;;;13.70;99.90;;;;;;6311194;22;20046;-79
2022/10/27 04:23:27;;;;;;;21.08;10.20;;;13.70;99.90;;;;;;6311339;22;20017;-77
2022/10/27 04:25:52;;;;;;;17.65;10.93;;;13.60;99.90;;;;;;6311197;22;20411;-78
2022/10/27 04:28:18;;;;;;;19.58;10.65;;;13.70;99.90;;;;;;6311486;22;20011;-79
2022/10/27 04:30:44;;;;;;;23.00;10.57;;;13.70;99.90;;;;;;6285471;22;20029;-79
2022/10/27 04:33:10;;;;;;;20.98;10.77;;;13.70;99.90;;;;;;6311288;22;20011;-79
2022/10/27 04:35:35;;;;;;;26.23;11.20;;;13.60;99.90;;;;;;6311284;22;20015;-80
2022/10/27 04:38:01;;;;;;;24.25;11.10;;;13.70;99.90;;;;;;6311638;22;20015;-77
2022/10/27 04:40:27;;;;;;;23.58;10.88;;;13.60;99.90;;;;;;6311186;22;20011;-78
2022/10/27 04:42:53;;;;;;;28.15;11.95;;;13.60;99.90;;;;;;6311067;22;20026;-78
2022/10/27 04:45:19;;;;;;;20.10;10.30;;;13.50;99.90;;;;;;6311098;22;20071;-79
2022/10/27 04:47:44;;;;;;;21.45;10.70;;;13.50;99.90;;;;;;6313099;22;20037;-79
2022/10/27 04:50:11;;;;;;;18.63;10.82;;;13.50;99.90;;;;;;6313277;22;20094;-77
2022/10/27 04:52:36;;;;;;;21.38;10.98;;;13.50;99.90;;;;;;6313193;22;20025;-78
2022/10/27 04:55:02;;;;;;;23.27;11.80;;;13.40;99.90;;;;;;6313231;22;20011;-79
2022/10/27 04:57:28;;;;;;;24.75;11.90;;;13.50;99.90;;;;;;6313310;22;20019;-77
2022/10/27 04:59:53;;;;;;;22.08;11.95;;;13.40;99.90;;;;;;6313250;22;20006;-83
2022/10/27 05:02:19;;;;;;;22.95;11.98;;;13.40;99.90;;;;;;6313891;22;20019;-80
2022/10/27 05:04:44;;;;;;;20.70;12.00;;;13.30;99.90;;;;;;6340553;22;20360;-79
2022/10/27 05:07:10;;;;;;;22.75;12.52;;;13.40;99.90;;;;;;6340979;22;20034;-80
2022/10/27 05:09:36;;;;;;;22.00;12.35;;;13.40;99.90;;;;;;6340919;22;20452;-79
2022/10/27 05:12:01;;;;;;;22.60;12.45;;;13.40;99.90;;;;;;6341282;22;20082;-79
2022/10/27 05:14:27;;;;;;;21.90;12.02;;;13.40;99.90;;;;;;6341229;22;20011;-81
2022/10/27 05:16:52;;;;;;;24.25;12.63;;;13.40;99.90;;;;;;6341288;22;20011;-80
2022/10/27 05:19:18;;;;;;;22.90;12.52;;;13.40;99.90;;;;;;6341138;22;20002;-83
2022/10/27 05:21:44;;;;;;;22.33;12.55;;;13.30;99.90;;;;;;6313119;22;20014;-80
2022/10/27 05:24:09;;;;;;;22.10;12.55;;;13.30;99.90;;;;;;6313155;22;20034;-80
2022/10/27 05:26:35;;;;;;;22.85;12.77;;;13.40;99.90;;;;;;6313213;22;20043;-80
2022/10/27 05:29:00;;;;;;;25.25;13.63;;;13.40;99.90;;;;;;6313177;22;20007;-79
2022/10/27 05:31:26;;;;;;;21.88;13.15;;;13.40;99.90;;;;;;6313241;22;20052;-82
2022/10/27 05:33:52;;;;;;;23.48;12.68;;;13.40;99.90;;;;;;6313462;22;20018;-80
2022/10/27 05:36:17;;;;;;;19.98;11.88;;;13.40;99.90;;;;;;6287412;22;20041;-79
2022/10/27 05:38:46;;;;;;;23.92;12.90;;;13.40;99.90;;;;;;6311952;22;20022;-81
2022/10/27 05:41:12;;;;;;;21.88;12.27;;;13.40;99.90;;;;;;6311652;22;20007;-79
2022/10/27 05:43:40;;;;;;;20.00;12.68;;;13.50;99.90;;;;;;6286403;22;20386;-78
2022/10/27 05:46:07;;;;;;;23.67;12.85;;;13.50;99.90;;;;;;6311918;22;20156;-79
2022/10/27 05:48:33;;;;;;;26.15;13.30;;;13.50;99.90;;;;;;6339475;22;20006;-80
2022/10/27 05:50:58;;;;;;;26.77;14.90;;;13.50;99.90;;;;;;6311677;22;20049;-77
2022/10/27 05:53:24;;;;;;;20.83;12.88;;;13.50;99.90;;;;;;6312054;22;20011;-78
2022/10/27 05:55:54;;;;;;;22.55;13.25;;;13.50;99.90;;;;;;6311728;22;20034;-80
2022/10/27 05:58:20;;;;;;;25.23;13.77;;;13.50;99.90;;;;;;6311236;22;20088;-78
2022/10/27 06:00:45;;;;;;;21.52;13.02;;;13.50;99.90;;;;;;6311334;22;20389;-81
2022/10/27 06:03:22;;;;;;;22.50;13.73;;;13.50;99.90;;;;;;6311575;22;20014;-80
2022/10/27 06:05:49;;;;;;;25.50;13.13;;;13.50;99.90;;;;;;6339605;22;20086;-81
2022/10/27 06:08:16;;;;;;;27.75;13.95;;;13.50;99.90;;;;;;6339098;22;20325;-78
2022/10/27 06:10:41;;;;;;;20.33;12.38;;;13.60;99.90;;;;;;6311447;22;20015;-81
2022/10/27 06:13:09;;;;;;;20.60;13.15;;;13.60;99.90;;;;;;6311497;22;20322;-79
2022/10/27 06:15:35;;;;;;;21.73;12.98;;;13.50;99.90;;;;;;6311270;22;20025;-78
2022/10/27 06:18:01;;;;;;;24.88;13.38;;;13.50;99.90;;;;;;6311468;22;20093;-81
2022/10/27 06:20:27;;;;;;;20.30;12.10;;;13.50;99.90;;;;;;6285485;22;20018;-81
2022/10/27 06:22:53;;;;;;;20.08;12.98;;;13.50;99.90;;;;;;6311393;22;20011;-81
2022/10/27 06:25:18;;;;;;;21.80;12.48;;;13.50;99.90;;;;;;6285406;22;20348;-82
2022/10/27 06:27:44;;;;;;;22.27;13.00;;;13.50;99.90;;;;;;6311112;22;20025;-81
2022/10/27 06:30:11;;;;;;;26.75;12.82;;;13.50;99.90;;;;;;6338926;22;20311;-81
2022/10/27 06:32:38;;;;;;;21.95;12.30;;;13.50;99.90;;;;;;6338879;22;20050;-78
2022/10/27 06:35:04;;;;;;;21.30;11.85;;;13.40;99.90;;;;;;6310875;22;20336;-79
2022/10/27 06:37:30;;;;;;;20.98;11.55;;;13.50;99.90;;;;;;6311194;22;20022;-77
2022/10/27 06:39:55;;;;;;;21.92;11.50;;;13.50;99.90;;;;;;6312520;22;20007;-80
2022/10/27 06:42:22;;;;;;;21.20;11.18;;;13.50;99.90;;;;;;6340285;22;20018;-80
2022/10/27 06:44:48;;;;;;;21.23;11.43;;;13.50;99.90;;;;;;6312816;22;20071;-82
2022/10/27 06:47:14;;;;;;;21.17;12.10;;;13.50;99.90;;;;;;6312739;22;20336;-80
2022/10/27 06:49:39;;;;;;;18.90;11.15;;;13.50;99.90;;;;;;6340259;22;20048;-82
2022/10/27 06:52:05;;;;;;;20.27;10.52;;;13.50;99.90;;;;;;6312276;22;20015;-81
2022/10/27 06:54:31;;;;;;;15.13;10.60;;;13.50;99.90;;;;;;6312805;22;20312;-79
2022/10/27 06:56:56;;;;;;;19.98;10.40;;;13.50;99.90;;;;;;6311932;22;20022;-80
2022/10/27 06:59:22;;;;;;;17.70;9.82;;;13.50;99.90;;;;;;6311934;22;20011;-79
2022/10/27 07:01:48;;;;;;;16.45;9.75;;;13.50;99.90;;;;;;6341190;22;20390;-78
2022/10/27 07:04:13;;;;;;;21.25;9.60;;;13.50;99.90;;;;;;6314156;22;20018;-78
2022/10/27 07:06:39;;;;;;;19.50;10.32;;;13.50;99.90;;;;;;6341438;22;20010;-81
2022/10/27 07:09:05;;;;;;;14.70;8.80;;;13.60;99.90;;;;;;6339521;22;20018;-78
2022/10/27 07:11:30;;;;;;;13.75;9.27;;;13.60;99.90;;;;;;6311618;22;20128;-79
2022/10/27 07:13:56;;;;;;;20.55;9.73;;;13.60;99.90;;;;;;6312162;22;20400;-80
2022/10/27 07:16:22;;;;;;;20.25;8.65;;;13.60;99.90;;;;;;6286438;22;20388;-80
2022/10/27 07:18:48;;;;;;;14.98;8.50;;;13.60;99.90;;;;;;6339761;22;20037;-79
2022/10/27 07:21:15;;;;;;;14.45;9.15;;;13.60;99.90;;;;;;6339748;22;20018;-79
2022/10/27 07:23:41;;;;;;;14.73;8.60;;;13.70;99.90;;;;;;6311889;22;20010;-78
2022/10/27 07:26:06;;;;;;;13.82;8.15;;;13.70;99.90;;;;;;6311819;22;20076;-78
2022/10/27 07:28:32;;;;;;;18.23;9.05;;;13.70;99.90;;;;;;6311674;22;20010;-80
2022/10/27 07:30:58;;;;;;;15.00;8.27;;;13.70;99.90;;;;;;6311719;22;20013;-80
2022/10/27 07:33:24;;;;;;;14.18;8.55;;;13.70;99.90;;;;;;6286713;22;20015;-78
2022/10/27 07:35:50;;;;;;;16.63;8.73;;;13.70;99.90;;;;;;6311553;22;20010;-79
2022/10/27 07:38:16;;;;;;;14.10;8.15;;;13.70;99.90;;;;;;6311686;22;20015;-77
2022/10/27 07:40:42;;;;;;;17.52;8.02;;;13.80;99.90;;;;;;6311435;22;20143;-80
2022/10/27 07:43:08;;;;;;;14.80;7.55;;;13.80;99.90;;;;;;6311638;22;20018;-79
2022/10/27 07:45:36;;;;;;;15.95;8.55;;;13.80;99.90;;;;;;6311700;22;20064;-79
2022/10/27 07:48:02;;;;;;;14.57;7.40;;;13.80;99.90;;;;;;6311698;22;20064;-80
2022/10/27 07:50:28;;;;;;;16.42;7.57;;;13.90;99.90;;;;;;6311867;22;20022;-78
2022/10/27 07:52:55;;;;;;;16.95;7.80;;;14.00;99.90;;;;;;6340114;22;20011;-79
2022/10/27 07:55:23;;;;;;;17.67;8.70;;;14.00;99.90;;;;;;6339320;22;20018;-79
2022/10/27 07:57:58;;;;;;;12.98;7.45;;;14.00;99.90;;;;;;6339547;22;20386;-80
2022/10/27 08:00:23;;;;;;;15.00;7.65;;;14.00;99.90;;;;;;6311337;22;20086;-81
2022/10/27 08:02:49;;;;;;;16.13;7.40;;;14.10;99.90;;;;;;6339633;22;20373;-79
2022/10/27 08:05:15;;;;;;;12.43;7.38;;;14.10;99.90;;;;;;6339344;22;20015;-79
2022/10/27 08:07:40;;;;;;;13.60;7.63;;;14.10;99.90;;;;;;6311498;22;20090;-80
2022/10/27 08:10:06;;;;;;;15.80;7.60;;;14.10;99.90;;;;;;6311462;22;20025;-78
2022/10/27 08:12:33;;;;;;;15.82;7.30;;;14.10;99.90;;;;;;6311354;22;20364;-81
2022/10/27 08:14:58;;;;;;;14.35;7.65;;;14.20;99.90;;;;;;6311349;22;20340;-82
2022/10/27 08:17:27;;;;;;;12.15;6.88;;;14.20;99.90;;;;;;6339862;22;20086;-80
2022/10/27 08:19:53;;;;;;;19.42;7.32;;;14.20;99.90;;;;;;6311261;22;20007;-80
2022/10/27 08:22:18;;;;;;;11.07;6.20;;;14.20;99.90;;;;;;6311164;22;20007;-78
2022/10/27 08:24:45;;;;;;;13.88;7.30;;;14.30;99.90;;;;;;6311338;22;20382;-80
2022/10/27 08:27:10;;;;;;;12.50;7.07;;;14.30;99.90;;;;;;6311444;22;20015;-78
2022/10/27 08:29:36;;;;;;;15.02;6.88;;;14.30;99.90;;;;;;6285906;22;20026;-80
2022/10/27 08:32:02;;;;;;;14.50;7.13;;;14.40;99.90;;;;;;6311327;22;20340;-80
2022/10/27 08:34:27;;;;;;;16.10;7.20;;;14.50;99.90;;;;;;6311195;22;20014;-79
2022/10/27 08:36:53;;;;;;;12.57;6.43;;;14.60;99.90;;;;;;6311427;22;20085;-80
2022/10/27 08:39:18;;;;;;;19.25;7.60;;;14.70;99.90;;;;;;6311523;22;20362;-82
2022/10/27 08:41:56;;;;;;;12.32;7.18;;;14.80;99.90;;;;;;6311490;22;20011;-81
2022/10/27 08:44:26;;;;;;;15.43;6.78;;;14.90;99.90;;;;;;6311489;22;20011;-81
2022/10/27 08:46:57;;;;;;;14.98;6.93;;;15.10;99.90;;;;;;6311563;22;20340;-79
2022/10/27 08:49:32;;;;;;;18.25;7.65;;;15.20;99.90;;;;;;6311455;22;20087;-78
2022/10/27 08:52:24;;;;;;;14.82;6.10;;;15.40;99.90;;;;;;6311214;22;20015;-78
2022/10/27 08:54:53;;;;;;;12.75;6.22;;;15.60;99.90;;;;;;6339264;22;20332;-81
2022/10/27 08:57:24;;;;;;;14.93;6.60;;;15.90;99.90;;;;;;6311236;22;20010;-82
2022/10/27 08:59:54;;;;;;;16.48;6.65;;;16.10;99.90;;;;;;6311293;22;20015;-78
2022/10/27 09:02:42;;;;;;;13.45;6.30;;;16.30;99.90;;;;;;6311922;22;20011;-81
2022/10/27 09:05:26;;;;;;;14.35;6.70;;;16.40;99.90;;;;;;6285446;22;20130;-79
2022/10/27 09:08:36;;;;;;;16.80;6.38;;;16.30;99.90;;;;;;6338916;22;20018;-82
2022/10/27 09:11:26;;;;;;;13.35;6.00;;;16.40;99.90;;;;;;6316466;22;20039;-80
2022/10/27 09:14:26;;;;;;;13.50;5.80;;;16.40;99.90;;;;;;6341148;22;20007;-81
2022/10/27 09:16:58;;;;;;;14.68;5.75;;;16.40;99.90;;;;;;6285873;22;20436;-81
2022/10/27 09:19:30;;;;;;;14.38;6.18;;;16.50;99.90;;;;;;6312703;22;20010;-79
2022/10/27 09:21:58;;;;;;;14.02;5.70;;;16.50;99.90;;;;;;6312419;22;20015;-81
2022/10/27 09:24:28;;;;;;;14.13;5.38;;;16.50;99.90;;;;;;6340461;22;20015;-81
2022/10/27 09:26:57;;;;;;;10.25;4.65;;;16.50;99.90;;;;;;6339765;22;20025;-83
2022/10/27 09:29:23;;;;;;;11.43;5.40;;;16.50;99.90;;;;;;6340191;22;20010;-83
2022/10/27 09:32:00;;;;;;;11.25;5.47;;;16.50;99.90;;;;;;6339968;22;20029;-82
2022/10/27 09:34:31;;;;;;;11.57;5.07;;;16.50;99.90;;;;;;6314764;22;20100;-80
2022/10/27 09:36:57;;;;;;;12.25;5.40;;;16.40;99.90;;;;;;6314944;22;20014;-83
2022/10/27 09:39:23;;;;;;;10.45;4.70;;;16.40;99.90;;;;;;6342518;22;20045;-82
2022/10/27 09:41:49;;;;;;;13.88;4.97;;;16.40;99.90;;;;;;6341522;22;20056;-83
2022/10/27 09:44:25;;;;;;;13.98;5.00;;;16.40;99.90;;;;;;6341625;22;20038;-79
2022/10/27 09:46:53;;;;;;;12.13;5.07;;;16.40;99.90;;;;;;6313730;22;20010;-79
2022/10/27 09:49:25;;;;;;;10.45;4.57;;;16.50;99.90;;;;;;6288270;22;20433;-83
2022/10/27 09:51:56;;;;;;;11.10;4.63;;;16.60;99.90;;;;;;6314340;22;20369;-80
2022/10/27 09:54:33;;;;;;;11.02;4.00;;;16.60;99.90;;;;;;6341286;22;20007;-81
2022/10/27 09:57:19;;;;;;;13.75;4.70;;;16.70;99.90;;;;;;6314038;22;20015;-80
2022/10/27 10:00:03;;;;;;;10.27;4.38;;;16.70;99.90;;;;;;6313453;22;20323;-81
2022/10/27 10:02:39;;;;;;;10.68;4.53;;;16.80;99.90;;;;;;6313692;22;20011;-81
2022/10/27 10:05:17;;;;;;;14.32;4.38;;;16.90;99.90;;;;;;6287807;22;20014;-82
2022/10/27 10:07:45;;;;;;;8.30;3.95;;;17.00;99.90;;;;;;6341284;22;20010;-80
2022/10/27 10:10:28;;;;;;;11.77;3.70;;;17.00;99.90;;;;;;6313499;22;20014;-80
2022/10/27 10:13:03;;;;;;;8.38;3.80;;;17.20;99.90;;;;;;6341196;22;20059;-80
2022/10/27 10:15:31;;;;;;;8.05;3.80;;;17.30;99.90;;;;;;6340671;22;20440;-80
2022/10/27 10:18:01;;;;;;;8.38;3.60;;;17.40;99.90;;;;;;6340838;22;20450;-80
2022/10/27 10:20:40;;;;;;;7.45;3.70;;;17.40;99.90;;;;;;6340996;22;20011;-79
2022/10/27 10:23:18;;;;;;;9.32;3.15;;;17.50;99.90;;;;;;6341177;22;20014;-80
2022/10/27 10:25:48;;;;;;;11.10;3.53;;;17.50;99.90;;;;;;6340847;22;20042;-80
2022/10/27 10:28:31;;;;;;;6.68;3.10;;;17.50;99.90;;;;;;6313479;22;20473;-79
2022/10/27 10:30:58;;;;;;;6.55;3.00;;;17.60;99.90;;;;;;6287343;22;20447;-80
2022/10/27 10:33:27;;;;;;;11.82;3.00;;;17.70;99.90;;;;;;6313197;22;20049;-80
2022/10/27 10:35:54;;;;;;;7.75;2.53;;;17.80;99.90;;;;;;6287700;22;20033;-81
2022/10/27 10:38:22;;;;;;;11.52;2.60;;;17.90;99.90;;;;;;6313225;22;20470;-80
2022/10/27 10:41:12;;;;;;;6.07;2.28;;;18.10;99.90;;;;;;6313175;22;20013;-82
2022/10/27 10:43:39;;;;;;;6.07;2.05;;;18.30;99.90;;;;;;6287002;22;20007;-80
2022/10/27 10:46:10;;;;;;;7.82;2.33;;;18.50;99.90;;;;;;6287510;22;20022;-80
2022/10/27 10:48:51;;;;;;;8.63;2.40;;;18.60;99.90;;;;;;6314111;22;20019;-80
2022/10/27 10:51:29;;;;;;;5.72;2.30;;;18.70;99.90;;;;;;6312870;22;20025;-80
2022/10/27 10:54:02;;;;;;;10.07;2.13;;;18.80;99.90;;;;;;6341459;22;20034;-80
2022/10/27 10:56:33;;;;;;;5.38;2.20;;;18.90;99.90;;;;;;6286607;22;20015;-80
2022/10/27 10:59:08;;;;;;;6.18;2.17;;;19.00;99.90;;;;;;6312983;22;20058;-81
2022/10/27 11:01:38;;;;;;;5.83;1.90;;;19.10;99.90;;;;;;6286909;22;20010;-81
2022/10/27 11:04:05;;;;;;;5.57;2.10;;;19.20;99.90;;;;;;6314189;22;20018;-82
2022/10/27 11:06:31;;;;;;;7.63;2.03;;;19.40;99.90;;;;;;6340585;22;20021;-83
2022/10/27 11:09:03;;;;;;;6.50;2.40;;;19.50;99.90;;;;;;6286944;22;20344;-80
2022/10/27 11:11:34;;;;;;;5.82;2.03;;;19.60;99.90;;;;;;6312392;22;20115;-80
2022/10/27 11:14:15;;;;;;;5.85;1.95;;;19.50;99.90;;;;;;6312486;22;20015;-77
2022/10/27 11:16:50;;;;;;;7.10;1.90;;;19.30;99.90;;;;;;6313201;22;20021;-81
2022/10/27 11:19:18;;;;;;;6.25;2.15;;;19.20;99.90;;;;;;6312969;22;20003;-81
2022/10/27 11:21:55;;;;;;;5.80;2.05;;;19.20;99.90;;;;;;6339987;22;20466;-80
2022/10/27 11:24:27;;;;;;;6.57;1.88;;;19.00;99.90;;;;;;6311259;22;20042;-80
2022/10/27 11:27:02;;;;;;;5.30;2.05;;;19.00;99.90;;;;;;6312469;22;20094;-81
2022/10/27 11:29:52;;;;;;;5.57;1.65;;;19.00;99.90;;;;;;6312206;22;20010;-81
2022/10/27 11:32:41;;;;;;;6.68;1.70;;;19.10;99.90;;;;;;6286553;22;20011;-81
2022/10/27 11:35:27;;;;;;;7.28;2.00;;;19.20;99.90;;;;;;6312614;22;20055;-81
2022/10/27 11:38:02;;;;;;;5.65;2.00;;;19.40;99.90;;;;;;6312715;22;20021;-80
2022/10/27 11:40:36;;;;;;;6.75;1.67;;;19.50;99.90;;;;;;6287190;22;20011;-80
2022/10/27 11:43:17;;;;;;;6.47;1.52;;;19.50;99.90;;;;;;6312405;22;20018;-81
2022/10/27 11:46:17;;;;;;;6.15;1.80;;;19.60;99.90;;;;;;6312444;22;20014;-83
2022/10/27 11:49:12;;;;;;;6.85;1.98;;;19.80;99.90;;;;;;6312575;22;20524;-81
2022/10/27 11:51:48;;;;;;;5.30;1.45;;;20.10;99.90;;;;;;6312312;22;20088;-81
2022/10/27 11:54:15;;;;;;;6.05;1.50;;;20.40;99.90;;;;;;6312344;22;20019;-82
2022/10/27 11:57:14;;;;;;;4.60;1.50;;;20.60;99.90;;;;;;6340469;22;20014;-79
2022/10/27 12:00:01;;;;;;;6.32;1.70;;;20.80;99.90;;;;;;6247774;22;20051;-80
2022/10/27 12:02:45;;;;;;;5.50;1.23;;;20.80;99.90;;;;;;6287475;22;20089;-80
2022/10/27 12:05:40;;;;;;;5.90;1.55;;;20.70;99.90;;;;;;6312246;22;20306;-80
2022/10/27 12:08:13;;;;;;;10.23;1.60;;;20.70;99.90;;;;;;6312981;22;20425;-80
2022/10/27 12:11:12;;;;;;;7.40;1.50;;;20.70;99.90;;;;;;6311902;22;20025;-79
2022/10/27 12:13:49;;;;;;;3.78;1.70;;;20.70;99.90;;;;;;6312729;22;20011;-82
2022/10/27 12:16:29;;;;;;;5.03;1.40;;;20.60;99.90;;;;;;6341213;22;20011;-81
2022/10/27 12:19:28;;;;;;;5.18;1.42;;;20.60;99.90;;;;;;6312551;22;20015;-82
2022/10/27 12:21:57;;;;;;;5.10;1.48;;;20.70;99.90;;;;;;6263036;22;20011;-81
2022/10/27 12:24:33;;;;;;;3.17;1.45;;;20.60;99.90;;;;;;6286574;22;20015;-80
2022/10/27 12:27:04;;;;;;;3.20;1.33;;;20.30;99.90;;;;;;6312051;22;20291;-81
2022/10/27 12:29:41;;;;;;;4.53;1.30;;;20.20;99.90;;;;;;6313156;22;20007;-81
2022/10/27 12:32:42;;;;;;;3.38;1.05;;;20.00;99.90;;;;;;6341325;22;20324;-81
2022/10/27 12:35:16;;;;;;;6.50;1.42;;;19.80;99.90;;;;;;6203889;22;20048;-81
2022/10/27 12:38:11;;;;;;;5.38;1.30;;;19.70;99.90;;;;;;6311828;22;20026;-82
2022/10/27 12:40:59;;;;;;;6.50;1.50;;;19.60;99.90;;;;;;6339551;22;20014;-81
2022/10/27 12:43:34;;;;;;;4.60;1.50;;;19.50;99.90;;;;;;6340685;22;20011;-82
2022/10/27 12:46:02;;;;;;;3.67;1.35;;;19.40;99.90;;;;;;6312558;22;20015;-79
2022/10/27 12:48:57;;;;;;;5.90;1.50;;;19.40;99.90;;;;;;6313188;22;20026;-78
2022/10/27 12:51:32;;;;;;;4.05;1.38;;;19.30;99.90;;;;;;6229115;22;20512;-79
2022/10/27 12:54:10;;;;;;;;;;;19.30;99.90;;;;;;6312565;22;20010;-82
2022/10/27 12:56:53;;;;;;;7.05;2.17;;;19.30;99.90;;;;;;6287238;22;19910;-82
2022/10/27 12:59:25;;;;;;;4.05;1.52;;;19.30;99.90;;;;;;6287648;22;20336;-82
2022/10/27 13:01:59;;;;;;;10.60;2.05;;;19.20;99.90;;;;;;6286571;22;20478;-83
2022/10/27 13:05:02;;;;;;;5.68;1.30;;;19.20;99.90;;;;;;6287033;22;20056;-82
2022/10/27 13:07:53;;;;;;;9.18;1.90;;;19.30;99.90;;;;;;6340911;22;20095;-83
2022/10/27 13:10:47;;;;;;;4.05;1.50;;;19.50;99.90;;;;;;6341459;22;20084;-82
2022/10/27 13:13:33;;;;;;;6.82;1.40;;;19.70;99.90;;;;;;6341654;22;20018;-80
2022/10/27 13:16:04;;;;;;;4.63;1.38;;;19.60;99.90;;;;;;6313831;22;20014;-75
2022/10/27 13:19:03;;;;;;;6.82;1.65;;;19.70;99.90;;;;;;6313731;22;20017;-80
2022/10/27 13:22:18;;;;;;;4.68;1.77;;;19.60;99.90;;;;;;6314098;22;20014;-81
2022/10/27 13:24:53;;;;;;;4.13;1.23;;;19.50;99.90;;;;;;6256967;22;20015;-84
2022/10/27 13:27:45;;;;;;;5.95;1.52;;;19.40;99.90;;;;;;6314886;22;20325;-82
2022/10/27 13:30:19;;;;;;;6.50;1.05;;;19.30;99.90;;;;;;6314036;22;20029;-82
2022/10/27 13:32:45;;;;;;;6.90;1.48;;;19.20;99.90;;;;;;6314390;22;20023;-82
2022/10/27 13:35:10;;;;;;;5.45;1.67;;;19.20;99.90;;;;;;6313835;22;20014;-82
2022/10/27 13:37:46;;;;;;;6.70;1.73;;;19.10;99.90;;;;;;6341778;22;20018;-80
2022/10/27 13:40:18;;;;;;;3.65;1.55;;;19.10;99.90;;;;;;6341813;22;20048;-80
2022/10/27 13:42:44;;;;;;;5.90;1.60;;;19.00;99.90;;;;;;6314552;22;20014;-82
2022/10/27 13:45:28;;;;;;;5.28;1.50;;;18.90;99.90;;;;;;6340558;22;20444;-80
2022/10/27 13:48:08;;;;;;;5.25;1.40;;;18.80;99.90;;;;;;6341445;22;20432;-80
2022/10/27 13:50:35;;;;;;;7.68;2.25;;;18.70;99.90;;;;;;6341168;22;20059;-80
2022/10/27 13:53:22;;;;;;;6.93;1.80;;;18.60;99.90;;;;;;6287004;22;20019;-80
2022/10/27 13:55:49;;;;;;;7.35;1.77;;;18.50;99.90;;;;;;6287287;22;20432;-80
2022/10/27 13:58:22;;;;;;;4.53;1.63;;;18.40;99.90;;;;;;6340414;22;20391;-79
2022/10/27 14:01:12;;;;;;;4.63;1.80;;;18.40;99.90;;;;;;6339841;22;20017;-79
2022/10/27 14:03:37;;;;;;;5.28;1.95;;;18.30;99.90;;;;;;6312502;22;20064;-79
2022/10/27 14:06:09;;;;;;;5.47;1.55;;;18.30;99.90;;;;;;6286949;22;20015;-79
2022/10/27 14:08:52;;;;;;;8.45;1.75;;;18.30;99.90;;;;;;6286759;22;20021;-79
2022/10/27 14:11:28;;;;;;;7.30;1.98;;;18.20;99.90;;;;;;6312522;22;20015;-80
2022/10/27 14:14:20;;;;;;;4.78;1.80;;;18.20;99.90;;;;;;6312739;22;20018;-78
2022/10/27 14:16:46;;;;;;;5.25;1.67;;;18.20;99.90;;;;;;6296579;22;20015;-80
2022/10/27 14:19:11;;;;;;;4.50;1.45;;;18.20;99.90;;;;;;6312135;22;20013;-79
2022/10/27 14:21:44;;;;;;;4.88;1.92;;;18.20;99.90;;;;;;6340435;22;20116;-79
2022/10/27 14:24:37;;;;;;;6.20;1.58;;;18.20;99.90;;;;;;6338573;22;20029;-80
2022/10/27 14:27:04;;;;;;;5.43;1.50;;;18.20;99.90;;;;;;6313041;22;20015;-79
2022/10/27 14:29:30;;;;;;;4.00;1.40;;;18.20;99.90;;;;;;6313056;22;20007;-78
2022/10/27 14:32:18;;;;;;;5.13;1.70;;;18.20;99.90;;;;;;6312499;22;20066;-79
2022/10/27 14:34:44;;;;;;;9.02;1.70;;;18.20;99.90;;;;;;6312284;22;20015;-81
2022/10/27 14:37:16;;;;;;;3.97;1.45;;;18.20;99.90;;;;;;6312720;22;20072;-80
2022/10/27 14:39:42;;;;;;;5.43;1.52;;;18.10;99.90;;;;;;6312592;22;20428;-79
2022/10/27 14:42:18;;;;;;;4.55;1.60;;;18.10;99.90;;;;;;6312791;22;20006;-78
2022/10/27 14:44:50;;;;;;;7.25;1.50;;;18.10;99.90;;;;;;6340040;22;20038;-82
2022/10/27 14:47:16;;;;;;;6.07;1.70;;;18.20;99.90;;;;;;6312899;22;20037;-82
2022/10/27 14:49:51;;;;;;;5.55;1.98;;;18.10;99.90;;;;;;6312866;22;20139;-79
2022/10/27 14:52:20;;;;;;;8.18;1.58;;;18.20;99.90;;;;;;6286863;22;20019;-82
2022/10/27 14:54:53;;;;;;;4.07;1.50;;;18.20;99.90;;;;;;6312758;22;20011;-83
2022/10/27 14:57:28;;;;;;;4.53;1.30;;;18.20;99.90;;;;;;6313110;22;20463;-82
2022/10/27 14:59:54;;;;;;;6.95;1.35;;;18.20;99.90;;;;;;6313466;22;20367;-80
2022/10/27 15:02:22;;;;;;;5.03;1.58;;;18.20;99.90;;;;;;6312203;22;20010;-82
2022/10/27 15:04:47;;;;;;;4.95;1.70;;;18.30;99.90;;;;;;6312552;22;20415;-79
2022/10/27 15:07:18;;;;;;;6.20;1.60;;;18.30;99.90;;;;;;6312364;22;20015;-82
2022/10/27 15:09:48;;;;;;;5.85;1.67;;;18.40;99.90;;;;;;6312457;22;20014;-80
2022/10/27 15:12:29;;;;;;;3.85;1.40;;;18.50;99.90;;;;;;6312256;22;20015;-82
2022/10/27 15:14:55;;;;;;;4.70;1.90;;;18.60;99.90;;;;;;6286966;22;20094;-84
2022/10/27 15:17:30;;;;;;;5.95;1.52;;;18.60;99.90;;;;;;6340189;22;20057;-81
2022/10/27 15:19:58;;;;;;;5.95;1.70;;;18.60;99.90;;;;;;6312767;22;20011;-82
2022/10/27 15:22:24;;;;;;;3.58;1.42;;;18.60;99.90;;;;;;6311286;22;20082;-79
2022/10/27 15:24:52;;;;;;;4.43;1.40;;;18.60;99.90;;;;;;6312252;22;20026;-84
2022/10/27 15:27:18;;;;;;;4.50;1.50;;;18.60;99.90;;;;;;6312707;22;20010;-80
2022/10/27 15:29:47;;;;;;;7.72;1.58;;;18.60;99.90;;;;;;6339691;22;20369;-78
2022/10/27 15:32:28;;;;;;;6.22;1.40;;;18.60;99.90;;;;;;6311975;22;20015;-79
2022/10/27 15:34:55;;;;;;;5.75;1.45;;;18.50;99.90;;;;;;6311980;22;20007;-80
2022/10/27 15:37:31;;;;;;;7.53;1.45;;;18.50;99.90;;;;;;6312092;22;20007;-79
2022/10/27 15:40:35;;;;;;;6.53;1.60;;;18.40;99.90;;;;;;6339583;22;20356;-81
2022/10/27 15:43:16;;;;;;;5.15;1.60;;;18.40;99.90;;;;;;6306088;22;20068;-78
2022/10/27 15:45:43;;;;;;;3.53;1.38;;;18.30;99.90;;;;;;6311882;22;20068;-81
2022/10/27 15:48:24;;;;;;;6.80;2.05;;;18.30;99.90;;;;;;6312070;22;20019;-78
2022/10/27 15:51:03;;;;;;;5.03;1.70;;;18.20;99.90;;;;;;6311626;22;20021;-78
2022/10/27 15:53:30;;;;;;;5.65;1.55;;;18.20;99.90;;;;;;6311671;22;20021;-81
2022/10/27 15:56:04;;;;;;;5.75;2.20;;;18.20;99.90;;;;;;6311729;22;20091;-80
2022/10/27 15:58:36;;;;;;;5.57;1.70;;;18.10;99.90;;;;;;6311751;22;20015;-79
2022/10/27 16:01:22;;;;;;;8.88;2.00;;;18.10;99.90;;;;;;6311550;22;20086;-81